sensor_id;sensor_type;location;lat;lon;timestamp;pressure;altitude;pressure_sealevel;temperature;humidity
75006;BME280;63553;51.814;4.600;2023-02-28T00:00:04;103318.28;;;12.68;63.23
75006;BME280;63553;51.814;4.600;2023-02-28T00:02:40;103319.41;;;12.67;63.34
75006;BME280;63553;51.814;4.600;2023-02-28T00:05:08;103315.78;;;12.67;63.28
75006;BME280;63553;51.814;4.600;2023-02-28T00:07:34;103302.91;;;12.66;63.38
75006;BME280;63553;51.814;4.600;2023-02-28T00:10:00;103300.44;;;12.64;63.10
75006;BME280;63553;51.814;4.600;2023-02-28T00:12:25;103297.06;;;12.62;63.17
75006;BME280;63553;51.814;4.600;2023-02-28T00:14:51;103305.72;;;12.66;63.23
75006;BME280;63553;51.814;4.600;2023-02-28T00:17:17;103296.25;;;12.62;63.08
75006;BME280;63553;51.814;4.600;2023-02-28T00:19:46;103299.03;;;12.62;63.22
75006;BME280;63553;51.814;4.600;2023-02-28T00:22:12;103300.69;;;12.63;63.22
75006;BME280;63553;51.814;4.600;2023-02-28T00:24:37;103299.03;;;12.62;63.12
75006;BME280;63553;51.814;4.600;2023-02-28T00:27:03;103300.97;;;12.61;63.18
75006;BME280;63553;51.814;4.600;2023-02-28T00:29:28;103302.91;;;12.61;63.25
75006;BME280;63553;51.814;4.600;2023-02-28T00:31:53;103307.66;;;12.60;63.13
75006;BME280;63553;51.814;4.600;2023-02-28T00:34:19;103309.06;;;12.63;63.40
75006;BME280;63553;51.814;4.600;2023-02-28T00:36:44;103311.00;;;12.62;63.27
75006;BME280;63553;51.814;4.600;2023-02-28T00:39:11;103322.16;;;12.62;63.25
75006;BME280;63553;51.814;4.600;2023-02-28T00:41:36;103320.50;;;12.61;63.27
75006;BME280;63553;51.814;4.600;2023-02-28T00:44:02;103318.81;;;12.60;63.04
75006;BME280;63553;51.814;4.600;2023-02-28T00:46:27;103319.13;;;12.59;63.30
75006;BME280;63553;51.814;4.600;2023-02-28T00:48:53;103319.13;;;12.59;63.12
75006;BME280;63553;51.814;4.600;2023-02-28T00:51:18;103313.53;;;12.59;63.16
75006;BME280;63553;51.814;4.600;2023-02-28T00:53:44;103305.72;;;12.56;63.27
75006;BME280;63553;51.814;4.600;2023-02-28T00:56:09;103310.44;;;12.55;63.28
75006;BME280;63553;51.814;4.600;2023-02-28T00:58:34;103312.09;;;12.56;63.05
75006;BME280;63553;51.814;4.600;2023-02-28T01:01:00;103309.59;;;12.55;63.26
75006;BME280;63553;51.814;4.600;2023-02-28T01:03:25;103317.69;;;12.56;63.27
75006;BME280;63553;51.814;4.600;2023-02-28T01:05:50;103314.63;;;12.58;63.24
75006;BME280;63553;51.814;4.600;2023-02-28T01:08:18;103311.56;;;12.54;63.13
75006;BME280;63553;51.814;4.600;2023-02-28T01:10:43;103319.38;;;12.57;63.06
75006;BME280;63553;51.814;4.600;2023-02-28T01:13:09;103312.94;;;12.57;63.49
75006;BME280;63553;51.814;4.600;2023-02-28T01:15:34;103312.09;;;12.56;63.09
75006;BME280;63553;51.814;4.600;2023-02-28T01:17:59;103322.72;;;12.59;63.22
75006;BME280;63553;51.814;4.600;2023-02-28T01:20:25;103321.31;;;12.57;63.31
75006;BME280;63553;51.814;4.600;2023-02-28T01:22:50;103320.47;;;12.56;62.71
75006;BME280;63553;51.814;4.600;2023-02-28T01:25:15;103322.16;;;12.57;63.10
75006;BME280;63553;51.814;4.600;2023-02-28T01:27:41;103302.03;;;12.50;63.17
75006;BME280;63553;51.814;4.600;2023-02-28T01:30:08;103309.06;;;12.58;63.35
75006;BME280;63553;51.814;4.600;2023-02-28T01:32:34;103311.56;;;12.59;63.08
75006;BME280;63553;51.814;4.600;2023-02-28T01:34:59;103313.53;;;12.59;63.09
75006;BME280;63553;51.814;4.600;2023-02-28T01:37:24;103314.34;;;12.59;63.22
75006;BME280;63553;51.814;4.600;2023-02-28T01:39:49;103307.94;;;12.59;63.17
75006;BME280;63553;51.814;4.600;2023-02-28T01:42:15;103308.22;;;12.57;62.99
75006;BME280;63553;51.814;4.600;2023-02-28T01:45:04;103315.78;;;12.62;63.12
75006;BME280;63553;51.814;4.600;2023-02-28T01:47:35;103306.56;;;12.61;63.10
75006;BME280;63553;51.814;4.600;2023-02-28T01:50:04;103299.28;;;12.60;63.14
75006;BME280;63553;51.814;4.600;2023-02-28T01:52:32;103293.72;;;12.60;63.31
75006;BME280;63553;51.814;4.600;2023-02-28T01:54:59;103296.25;;;12.62;62.82
75006;BME280;63553;51.814;4.600;2023-02-28T01:57:33;103295.09;;;12.63;63.04
75006;BME280;63553;51.814;4.600;2023-02-28T02:00:14;103295.69;;;12.65;62.86
75006;BME280;63553;51.814;4.600;2023-02-28T02:02:43;103291.47;;;12.62;62.97
75006;BME280;63553;51.814;4.600;2023-02-28T02:05:14;103290.38;;;12.63;63.17
75006;BME280;63553;51.814;4.600;2023-02-28T02:07:41;103286.47;;;12.64;62.95
75006;BME280;63553;51.814;4.600;2023-02-28T02:15:22;103286.47;;;12.64;62.84
75006;BME280;63553;51.814;4.600;2023-02-28T02:17:52;103283.38;;;12.66;62.68
75006;BME280;63553;51.814;4.600;2023-02-28T02:20:46;103280.31;;;12.62;62.88
75006;BME280;63553;51.814;4.600;2023-02-28T02:29:07;103280.59;;;12.66;62.35
75006;BME280;63553;51.814;4.600;2023-02-28T02:32:18;103285.34;;;12.65;62.78
75006;BME280;63553;51.814;4.600;2023-02-28T02:38:18;103276.97;;;12.65;62.64
75006;BME280;63553;51.814;4.600;2023-02-28T02:43:38;103280.31;;;12.62;61.98
75006;BME280;63553;51.814;4.600;2023-02-28T02:46:25;103273.31;;;12.60;62.18
75006;BME280;63553;51.814;4.600;2023-02-28T02:48:54;103271.94;;;12.57;62.24
75006;BME280;63553;51.814;4.600;2023-02-28T02:51:23;103274.16;;;12.60;62.40
75006;BME280;63553;51.814;4.600;2023-02-28T02:54:02;103267.75;;;12.60;62.74
75006;BME280;63553;51.814;4.600;2023-02-28T02:56:31;103270.28;;;12.61;62.73
75006;BME280;63553;51.814;4.600;2023-02-28T02:59:04;103268.59;;;12.60;62.50
75006;BME280;63553;51.814;4.600;2023-02-28T03:01:33;103268.31;;;12.62;62.78
75006;BME280;63553;51.814;4.600;2023-02-28T03:04:13;103267.50;;;12.61;62.86
75006;BME280;63553;51.814;4.600;2023-02-28T03:06:39;103278.09;;;12.64;63.19
75006;BME280;63553;51.814;4.600;2023-02-28T03:09:04;103271.66;;;12.64;62.76
75006;BME280;63553;51.814;4.600;2023-02-28T03:11:30;103273.06;;;12.66;62.65
75006;BME280;63553;51.814;4.600;2023-02-28T03:17:14;103278.94;;;12.65;61.99
75006;BME280;63553;51.814;4.600;2023-02-28T03:24:52;103297.59;;;12.59;61.80
75006;BME280;63553;51.814;4.600;2023-02-28T03:27:30;103289.22;;;12.59;62.20
75006;BME280;63553;51.814;4.600;2023-02-28T03:30:11;103288.97;;;12.56;62.00
75006;BME280;63553;51.814;4.600;2023-02-28T03:32:50;103298.44;;;12.55;61.61
75006;BME280;63553;51.814;4.600;2023-02-28T03:35:21;103288.38;;;12.54;62.04
75006;BME280;63553;51.814;4.600;2023-02-28T03:37:54;103290.34;;;12.53;62.15
75006;BME280;63553;51.814;4.600;2023-02-28T03:40:25;103287.84;;;12.52;62.18
75006;BME280;63553;51.814;4.600;2023-02-28T03:42:58;103286.72;;;12.53;62.15
75006;BME280;63553;51.814;4.600;2023-02-28T03:45:28;103286.44;;;12.54;61.71
75006;BME280;63553;51.814;4.600;2023-02-28T03:47:58;103293.13;;;12.53;61.39
75006;BME280;63553;51.814;4.600;2023-02-28T03:50:36;103284.50;;;12.50;62.43
75006;BME280;63553;51.814;4.600;2023-02-28T03:53:31;103285.31;;;12.50;62.45
75006;BME280;63553;51.814;4.600;2023-02-28T03:56:27;103282.81;;;12.49;62.09
75006;BME280;63553;51.814;4.600;2023-02-28T03:59:06;103286.16;;;12.51;62.59
75006;BME280;63553;51.814;4.600;2023-02-28T04:01:38;103284.75;;;12.48;61.96
75006;BME280;63553;51.814;4.600;2023-02-28T04:04:07;103279.47;;;12.47;61.93
75006;BME280;63553;51.814;4.600;2023-02-28T04:06:33;103280.56;;;12.46;61.62
75006;BME280;63553;51.814;4.600;2023-02-28T04:08:59;103280.00;;;12.44;61.99
75006;BME280;63553;51.814;4.600;2023-02-28T04:11:38;103285.03;;;12.47;62.59
75006;BME280;63553;51.814;4.600;2023-02-28T04:14:05;103284.75;;;12.48;61.69
75006;BME280;63553;51.814;4.600;2023-02-28T04:16:31;103284.19;;;12.46;61.78
75006;BME280;63553;51.814;4.600;2023-02-28T04:18:57;103276.66;;;12.47;62.67
75006;BME280;63553;51.814;4.600;2023-02-28T04:21:31;103278.63;;;12.46;62.68
75006;BME280;63553;51.814;4.600;2023-02-28T04:23:56;103285.84;;;12.47;62.77
75006;BME280;63553;51.814;4.600;2023-02-28T04:26:27;103278.63;;;12.46;62.32
75006;BME280;63553;51.814;4.600;2023-02-28T04:28:53;103274.69;;;12.47;62.56
75006;BME280;63553;51.814;4.600;2023-02-28T04:31:18;103277.78;;;12.46;62.59
75006;BME280;63553;51.814;4.600;2023-02-28T04:33:43;103271.34;;;12.50;62.73
75006;BME280;63553;51.814;4.600;2023-02-28T04:36:09;103282.25;;;12.52;62.18
75006;BME280;63553;51.814;4.600;2023-02-28T04:38:36;103278.06;;;12.49;61.78
75006;BME280;63553;51.814;4.600;2023-02-28T04:41:02;103287.00;;;12.51;61.52
75006;BME280;63553;51.814;4.600;2023-02-28T04:43:27;103280.28;;;12.47;61.03
75006;BME280;63553;51.814;4.600;2023-02-28T04:45:54;103291.44;;;12.47;60.87
75006;BME280;63553;51.814;4.600;2023-02-28T04:48:25;103283.59;;;12.39;61.20
75006;BME280;63553;51.814;4.600;2023-02-28T04:50:51;103288.91;;;12.36;61.16
75006;BME280;63553;51.814;4.600;2023-02-28T04:53:17;103291.97;;;12.34;61.58
75006;BME280;63553;51.814;4.600;2023-02-28T04:55:43;103286.94;;;12.31;61.20
75006;BME280;63553;51.814;4.600;2023-02-28T04:58:08;103289.13;;;12.24;61.17
75006;BME280;63553;51.814;4.600;2023-02-28T05:00:34;103301.44;;;12.28;62.04
75006;BME280;63553;51.814;4.600;2023-02-28T05:02:59;103298.63;;;12.23;61.91
75006;BME280;63553;51.814;4.600;2023-02-28T05:05:25;103302.00;;;12.25;62.03
75006;BME280;63553;51.814;4.600;2023-02-28T05:07:50;103301.44;;;12.23;61.31
75006;BME280;63553;51.814;4.600;2023-02-28T05:10:15;103301.13;;;12.24;61.04
75006;BME280;63553;51.814;4.600;2023-02-28T05:12:41;103305.31;;;12.22;62.37
75006;BME280;63553;51.814;4.600;2023-02-28T05:15:09;103310.34;;;12.25;62.72
75006;BME280;63553;51.814;4.600;2023-02-28T05:17:37;103310.94;;;12.32;64.18
75006;BME280;63553;51.814;4.600;2023-02-28T05:20:03;103309.28;;;12.36;62.51
75006;BME280;63553;51.814;4.600;2023-02-28T05:22:30;103307.03;;;12.33;61.98
75006;BME280;63553;51.814;4.600;2023-02-28T05:24:55;103320.16;;;12.38;61.84
75006;BME280;63553;51.814;4.600;2023-02-28T05:27:20;103319.88;;;12.34;61.27
75006;BME280;63553;51.814;4.600;2023-02-28T05:29:46;103311.22;;;12.36;61.18
75006;BME280;63553;51.814;4.600;2023-02-28T05:32:12;103319.88;;;12.34;61.42
75006;BME280;63553;51.814;4.600;2023-02-28T05:34:38;103317.63;;;12.36;63.71
75006;BME280;63553;51.814;4.600;2023-02-28T05:37:04;103308.41;;;12.31;63.39
75006;BME280;63553;51.814;4.600;2023-02-28T05:39:30;103314.84;;;12.31;62.90
75006;BME280;63553;51.814;4.600;2023-02-28T05:41:55;103314.84;;;12.26;62.94
75006;BME280;63553;51.814;4.600;2023-02-28T05:44:20;103316.47;;;12.22;63.96
75006;BME280;63553;51.814;4.600;2023-02-28T05:46:46;103314.25;;;12.24;63.62
75006;BME280;63553;51.814;4.600;2023-02-28T05:49:11;103320.13;;;12.22;63.65
75006;BME280;63553;51.814;4.600;2023-02-28T05:51:37;103314.25;;;12.24;63.80
75006;BME280;63553;51.814;4.600;2023-02-28T05:54:05;103322.06;;;12.27;62.86
75006;BME280;63553;51.814;4.600;2023-02-28T05:56:31;103317.88;;;12.24;62.23
75006;BME280;63553;51.814;4.600;2023-02-28T05:58:56;103318.72;;;12.20;63.04
75006;BME280;63553;51.814;4.600;2023-02-28T06:01:43;103318.97;;;12.18;62.14
75006;BME280;63553;51.814;4.600;2023-02-28T06:04:16;103320.91;;;12.13;61.06
75006;BME280;63553;51.814;4.600;2023-02-28T06:06:45;103314.72;;;12.06;61.68
75006;BME280;63553;51.814;4.600;2023-02-28T06:09:11;103311.38;;;11.99;60.88
75006;BME280;63553;51.814;4.600;2023-02-28T06:11:36;103316.63;;;11.95;61.39
75006;BME280;63553;51.814;4.600;2023-02-28T06:14:02;103308.25;;;11.90;61.37
75006;BME280;63553;51.814;4.600;2023-02-28T06:16:29;103312.69;;;11.86;61.71
75006;BME280;63553;51.814;4.600;2023-02-28T06:18:57;103312.13;;;11.84;61.11
75006;BME280;63553;51.814;4.600;2023-02-28T06:21:23;103321.03;;;11.81;61.84
75006;BME280;63553;51.814;4.600;2023-02-28T06:23:49;103326.31;;;11.83;60.88
75006;BME280;63553;51.814;4.600;2023-02-28T06:26:14;103320.97;;;11.76;61.06
75006;BME280;63553;51.814;4.600;2023-02-28T06:28:40;103319.88;;;11.72;62.14
75006;BME280;63553;51.814;4.600;2023-02-28T06:31:11;103328.53;;;11.76;62.55
75006;BME280;63553;51.814;4.600;2023-02-28T06:33:37;103316.78;;;11.74;62.09
75006;BME280;63553;51.814;4.600;2023-02-28T06:36:04;103323.78;;;11.76;62.96
75006;BME280;63553;51.814;4.600;2023-02-28T06:38:30;103326.59;;;11.81;62.42
75006;BME280;63553;51.814;4.600;2023-02-28T06:40:57;103326.31;;;11.83;61.94
75006;BME280;63553;51.814;4.600;2023-02-28T06:43:25;103327.44;;;11.82;62.21
75006;BME280;63553;51.814;4.600;2023-02-28T06:45:57;103326.31;;;11.78;62.61
75006;BME280;63553;51.814;4.600;2023-02-28T06:48:23;103334.38;;;11.79;62.60
75006;BME280;63553;51.814;4.600;2023-02-28T06:50:49;103330.78;;;11.79;62.26
75006;BME280;63553;51.814;4.600;2023-02-28T06:53:14;103329.69;;;11.85;63.63
75006;BME280;63553;51.814;4.600;2023-02-28T06:55:40;103329.69;;;11.85;62.97
75006;BME280;63553;51.814;4.600;2023-02-28T06:58:06;103332.22;;;11.91;63.27
75006;BME280;63553;51.814;4.600;2023-02-28T07:00:43;103334.75;;;11.93;64.23
75006;BME280;63553;51.814;4.600;2023-02-28T07:03:09;103342.03;;;11.99;63.51
75006;BME280;63553;51.814;4.600;2023-02-28T07:05:35;103339.25;;;11.99;62.46
75006;BME280;63553;51.814;4.600;2023-02-28T07:08:02;103341.44;;;11.97;62.54
75006;BME280;63553;51.814;4.600;2023-02-28T07:10:28;103338.94;;;11.95;62.66
75006;BME280;63553;51.814;4.600;2023-02-28T07:12:53;103340.66;;;12.01;63.21
75006;BME280;63553;51.814;4.600;2023-02-28T07:15:19;103343.75;;;12.10;63.16
75006;BME280;63553;51.814;4.600;2023-02-28T07:17:44;103348.31;;;12.26;64.71
75006;BME280;63553;51.814;4.600;2023-02-28T07:20:10;103330.78;;;12.46;65.19
75006;BME280;63553;51.814;4.600;2023-02-28T07:22:36;103337.56;;;12.65;65.02
75006;BME280;63553;51.814;4.600;2023-02-28T07:25:02;103342.63;;;12.98;64.72
75006;BME280;63553;51.814;4.600;2023-02-28T07:27:27;103334.56;;;13.42;64.77
75006;BME280;63553;51.814;4.600;2023-02-28T07:29:52;103335.03;;;13.89;65.70
75006;BME280;63553;51.814;4.600;2023-02-28T07:32:19;103330.16;;;14.20;65.37
75006;BME280;63553;51.814;4.600;2023-02-28T07:34:45;103327.81;;;14.48;64.01
75006;BME280;63553;51.814;4.600;2023-02-28T07:37:10;103321.16;;;14.82;62.46
75006;BME280;63553;51.814;4.600;2023-02-28T07:39:36;103326.84;;;15.11;61.71
75006;BME280;63553;51.814;4.600;2023-02-28T07:42:04;103321.31;;;15.35;60.57
75006;BME280;63553;51.814;4.600;2023-02-28T07:44:31;103330.09;;;15.57;59.91
75006;BME280;63553;51.814;4.600;2023-02-28T07:46:56;103322.66;;;15.71;59.26
75006;BME280;63553;51.814;4.600;2023-02-28T07:49:21;103324.81;;;15.79;58.60
75006;BME280;63553;51.814;4.600;2023-02-28T07:51:47;103332.59;;;15.87;57.68
75006;BME280;63553;51.814;4.600;2023-02-28T07:54:12;103318.44;;;15.97;57.70
75006;BME280;63553;51.814;4.600;2023-02-28T07:56:37;103327.84;;;16.06;57.24
75006;BME280;63553;51.814;4.600;2023-02-28T07:59:03;103331.06;;;16.19;56.57
75006;BME280;63553;51.814;4.600;2023-02-28T08:01:28;103329.50;;;16.31;56.37
75006;BME280;63553;51.814;4.600;2023-02-28T08:03:55;103316.47;;;16.40;56.10
75006;BME280;63553;51.814;4.600;2023-02-28T08:06:23;103328.53;;;16.64;55.79
75006;BME280;63553;51.814;4.600;2023-02-28T08:08:49;103318.66;;;17.04;55.00
75006;BME280;63553;51.814;4.600;2023-02-28T08:11:15;103318.56;;;17.42;54.39
75006;BME280;63553;51.814;4.600;2023-02-28T08:13:41;103320.28;;;17.70;53.68
75006;BME280;63553;51.814;4.600;2023-02-28T08:16:13;103315.25;;;17.99;52.85
75006;BME280;63553;51.814;4.600;2023-02-28T08:18:47;103325.97;;;18.24;52.64
75006;BME280;63553;51.814;4.600;2023-02-28T08:21:12;103321.84;;;18.44;52.07
75006;BME280;63553;51.814;4.600;2023-02-28T08:23:41;103324.56;;;18.63;51.42
75006;BME280;63553;51.814;4.600;2023-02-28T08:26:06;103323.72;;;18.76;51.27
75006;BME280;63553;51.814;4.600;2023-02-28T08:28:32;103334.50;;;18.96;50.81
75006;BME280;63553;51.814;4.600;2023-02-28T08:30:57;103336.25;;;19.06;51.11
75006;BME280;63553;51.814;4.600;2023-02-28T08:33:24;103331.09;;;19.08;50.85
75006;BME280;63553;51.814;4.600;2023-02-28T08:35:54;103335.88;;;19.21;50.67
75006;BME280;63553;51.814;4.600;2023-02-28T08:38:19;103333.31;;;19.33;50.66
75006;BME280;63553;51.814;4.600;2023-02-28T08:40:45;103328.09;;;19.49;50.22
75006;BME280;63553;51.814;4.600;2023-02-28T08:43:10;103335.16;;;19.60;50.00
75006;BME280;63553;51.814;4.600;2023-02-28T08:45:35;103321.41;;;19.67;49.60
75006;BME280;63553;51.814;4.600;2023-02-28T08:48:01;103329.41;;;19.73;49.56
75006;BME280;63553;51.814;4.600;2023-02-28T08:50:26;103322.13;;;19.81;48.94
75006;BME280;63553;51.814;4.600;2023-02-28T08:52:51;103332.34;;;19.99;49.06
75006;BME280;63553;51.814;4.600;2023-02-28T08:55:17;103315.78;;;20.06;47.87
75006;BME280;63553;51.814;4.600;2023-02-28T08:57:42;103328.53;;;19.95;47.97
75006;BME280;63553;51.814;4.600;2023-02-28T09:00:08;103326.91;;;20.11;47.91
75006;BME280;63553;51.814;4.600;2023-02-28T09:02:33;103330.59;;;20.20;48.17
75006;BME280;63553;51.814;4.600;2023-02-28T09:04:59;103317.09;;;20.09;47.73
75006;BME280;63553;51.814;4.600;2023-02-28T09:07:24;103335.38;;;20.03;47.63
75006;BME280;63553;51.814;4.600;2023-02-28T09:09:50;103330.81;;;19.93;48.58
75006;BME280;63553;51.814;4.600;2023-02-28T09:12:24;103338.81;;;19.91;47.90
75006;BME280;63553;51.814;4.600;2023-02-28T09:14:50;103336.78;;;19.83;47.91
75006;BME280;63553;51.814;4.600;2023-02-28T09:17:16;103327.56;;;19.69;48.03
75006;BME280;63553;51.814;4.600;2023-02-28T09:19:42;103337.16;;;19.59;46.22
75006;BME280;63553;51.814;4.600;2023-02-28T09:22:08;103336.72;;;19.44;46.28
75006;BME280;63553;51.814;4.600;2023-02-28T09:24:35;103331.44;;;19.28;47.82
75006;BME280;63553;51.814;4.600;2023-02-28T09:27:02;103334.00;;;19.16;47.43
75006;BME280;63553;51.814;4.600;2023-02-28T09:29:27;103335.06;;;19.07;46.51
75006;BME280;63553;51.814;4.600;2023-02-28T09:31:52;103333.47;;;18.92;48.16
75006;BME280;63553;51.814;4.600;2023-02-28T09:34:17;103336.22;;;18.83;48.67
75006;BME280;63553;51.814;4.600;2023-02-28T09:36:43;103337.28;;;18.74;49.22
75006;BME280;63553;51.814;4.600;2023-02-28T09:39:09;103341.69;;;18.66;47.87
75006;BME280;63553;51.814;4.600;2023-02-28T09:41:54;103341.91;;;18.56;48.72
75006;BME280;63553;51.814;4.600;2023-02-28T09:44:31;103336.91;;;18.53;49.27
75006;BME280;63553;51.814;4.600;2023-02-28T09:47:10;103344.00;;;18.51;49.79
75006;BME280;63553;51.814;4.600;2023-02-28T09:49:44;103345.06;;;18.55;49.74
75006;BME280;63553;51.814;4.600;2023-02-28T09:52:32;103331.47;;;18.57;49.35
75006;BME280;63553;51.814;4.600;2023-02-28T09:57:58;103337.97;;;18.93;49.37
75006;BME280;63553;51.814;4.600;2023-02-28T10:00:32;103364.56;;;16.34;37.72
75006;BME280;63553;51.814;4.600;2023-02-28T10:03:40;103356.88;;;8.17;61.83
75006;BME280;63553;51.814;4.600;2023-02-28T10:06:20;103383.50;;;6.72;51.33
75006;BME280;63553;51.814;4.600;2023-02-28T10:08:58;103375.63;;;6.58;51.54
75006;BME280;63553;51.814;4.600;2023-02-28T10:11:27;103375.00;;;7.50;64.02
75006;BME280;63553;51.814;4.600;2023-02-28T10:14:17;103377.50;;;8.10;64.73
75006;BME280;63553;51.814;4.600;2023-02-28T10:16:47;103372.97;;;7.80;60.24
75006;BME280;63553;51.814;4.600;2023-02-28T10:19:33;103376.63;;;6.75;55.65
75006;BME280;63553;51.814;4.600;2023-02-28T10:22:17;103364.44;;;6.94;52.54
75006;BME280;63553;51.814;4.600;2023-02-28T10:24:46;103359.38;;;6.80;48.33
75006;BME280;63553;51.814;4.600;2023-02-28T10:27:23;103358.94;;;7.06;48.74
75006;BME280;63553;51.814;4.600;2023-02-28T10:29:53;103354.19;;;6.83;47.82
75006;BME280;63553;51.814;4.600;2023-02-28T10:32:24;103353.56;;;7.46;53.86
75006;BME280;63553;51.814;4.600;2023-02-28T10:35:00;103354.44;;;6.82;45.38
75006;BME280;63553;51.814;4.600;2023-02-28T10:37:28;103352.00;;;6.74;44.79
75006;BME280;63553;51.814;4.600;2023-02-28T10:39:53;103342.81;;;7.03;45.46
75006;BME280;63553;51.814;4.600;2023-02-28T10:42:27;103343.81;;;7.32;44.10
75006;BME280;63553;51.814;4.600;2023-02-28T10:45:16;103339.59;;;7.29;38.56
75006;BME280;63553;51.814;4.600;2023-02-28T10:47:56;103321.31;;;7.74;42.36
75006;BME280;63553;51.814;4.600;2023-02-28T10:56:05;103321.34;;;6.75;43.19
75006;BME280;63553;51.814;4.600;2023-02-28T10:59:28;103327.22;;;6.67;41.31
75006;BME280;63553;51.814;4.600;2023-02-28T11:01:48;103282.09;;;6.96;41.89
75006;BME280;63553;51.814;4.600;2023-02-28T11:04:19;103324.81;;;7.23;40.01
75006;BME280;63553;51.814;4.600;2023-02-28T11:06:45;103323.88;;;6.77;41.40
75006;BME280;63553;51.814;4.600;2023-02-28T11:09:33;103330.06;;;6.60;40.35
75006;BME280;63553;51.814;4.600;2023-02-28T11:12:08;103328.94;;;6.80;40.02
75006;BME280;63553;51.814;4.600;2023-02-28T11:14:49;103322.56;;;6.79;40.71
75006;BME280;63553;51.814;4.600;2023-02-28T11:17:24;103319.88;;;7.49;42.82
75006;BME280;63553;51.814;4.600;2023-02-28T11:20:03;103321.41;;;6.98;40.70
75006;BME280;63553;51.814;4.600;2023-02-28T11:22:32;103301.91;;;9.92;60.57
75006;BME280;63553;51.814;4.600;2023-02-28T11:25:06;103312.78;;;12.06;55.22
75006;BME280;63553;51.814;4.600;2023-02-28T11:29:59;103286.56;;;14.09;49.68
75006;BME280;63553;51.814;4.600;2023-02-28T11:32:27;103295.56;;;14.60;48.13
75006;BME280;63553;51.814;4.600;2023-02-28T11:37:35;103276.00;;;15.23;47.26
75006;BME280;63553;51.814;4.600;2023-02-28T11:40:01;103286.78;;;15.39;44.94
75006;BME280;63553;51.814;4.600;2023-02-28T11:50:38;103282.41;;;15.57;42.00
75006;BME280;63553;51.814;4.600;2023-02-28T11:53:16;103271.25;;;15.52;42.01
75006;BME280;63553;51.814;4.600;2023-02-28T11:55:49;103274.53;;;15.59;41.67
75006;BME280;63553;51.814;4.600;2023-02-28T11:58:26;103280.22;;;15.54;40.84
75006;BME280;63553;51.814;4.600;2023-02-28T12:03:44;103263.72;;;15.47;40.72
75006;BME280;63553;51.814;4.600;2023-02-28T12:09:23;103253.91;;;15.45;39.89
75006;BME280;63553;51.814;4.600;2023-02-28T12:17:34;103263.84;;;15.32;39.08
75006;BME280;63553;51.814;4.600;2023-02-28T12:20:13;103263.66;;;15.24;39.07
75006;BME280;63553;51.814;4.600;2023-02-28T12:28:24;103256.22;;;15.09;39.25
75006;BME280;63553;51.814;4.600;2023-02-28T12:31:00;103262.97;;;15.08;39.21
75006;BME280;63553;51.814;4.600;2023-02-28T12:33:31;103248.72;;;15.05;38.78
75006;BME280;63553;51.814;4.600;2023-02-28T12:36:00;103244.81;;;15.00;38.81
75006;BME280;63553;51.814;4.600;2023-02-28T12:38:29;103253.81;;;14.97;38.76
75006;BME280;63553;51.814;4.600;2023-02-28T12:41:05;103251.06;;;14.92;39.37
75006;BME280;63553;51.814;4.600;2023-02-28T12:43:44;103249.38;;;14.91;38.66
75006;BME280;63553;51.814;4.600;2023-02-28T12:46:16;103243.25;;;14.89;38.42
75006;BME280;63553;51.814;4.600;2023-02-28T12:48:48;103238.56;;;14.80;38.58
75006;BME280;63553;51.814;4.600;2023-02-28T12:51:16;103238.31;;;14.76;38.23
75006;BME280;63553;51.814;4.600;2023-02-28T12:54:12;103246.44;;;14.73;38.08
75006;BME280;63553;51.814;4.600;2023-02-28T12:56:53;103241.78;;;14.63;38.18
75006;BME280;63553;51.814;4.600;2023-02-28T13:04:52;103225.88;;;14.54;38.05
75006;BME280;63553;51.814;4.600;2023-02-28T13:10:17;103214.53;;;14.40;38.99
75006;BME280;63553;51.814;4.600;2023-02-28T13:12:51;103215.31;;;14.40;40.21
75006;BME280;63553;51.814;4.600;2023-02-28T13:15:27;103212.88;;;14.34;42.28
75006;BME280;63553;51.814;4.600;2023-02-28T13:17:56;103206.69;;;14.32;43.90
75006;BME280;63553;51.814;4.600;2023-02-28T13:20:37;103215.66;;;14.29;43.66
75006;BME280;63553;51.814;4.600;2023-02-28T13:23:38;103210.38;;;14.27;44.36
75006;BME280;63553;51.814;4.600;2023-02-28T13:26:04;103195.31;;;14.18;46.54
75006;BME280;63553;51.814;4.600;2023-02-28T13:31:13;103202.28;;;14.21;45.15
75006;BME280;63553;51.814;4.600;2023-02-28T13:36:26;103198.69;;;14.15;45.49
75006;BME280;63553;51.814;4.600;2023-02-28T13:38:59;103188.13;;;14.07;45.92
75006;BME280;63553;51.814;4.600;2023-02-28T13:46:30;103188.38;;;14.06;46.36
75006;BME280;63553;51.814;4.600;2023-02-28T13:48:56;103191.50;;;14.04;45.69
75006;BME280;63553;51.814;4.600;2023-02-28T13:51:45;103189.28;;;13.96;48.88
75006;BME280;63553;51.814;4.600;2023-02-28T13:56:47;103189.28;;;14.01;48.21
75006;BME280;63553;51.814;4.600;2023-02-28T14:02:32;103185.38;;;13.97;48.51
75006;BME280;63553;51.814;4.600;2023-02-28T14:05:17;103190.97;;;13.97;46.67
75006;BME280;63553;51.814;4.600;2023-02-28T14:07:45;103191.56;;;13.89;49.51
75006;BME280;63553;51.814;4.600;2023-02-28T14:10:23;103187.09;;;13.88;48.25
75006;BME280;63553;51.814;4.600;2023-02-28T14:13:00;103187.66;;;13.85;48.49
75006;BME280;63553;51.814;4.600;2023-02-28T14:17:59;103174.25;;;13.82;48.26
75006;BME280;63553;51.814;4.600;2023-02-28T14:20:30;103180.16;;;13.80;50.20
75006;BME280;63553;51.814;4.600;2023-02-28T14:23:06;103170.63;;;13.81;50.44
75006;BME280;63553;51.814;4.600;2023-02-28T14:26:02;103164.19;;;13.86;47.92
75006;BME280;63553;51.814;4.600;2023-02-28T14:28:50;103166.97;;;13.81;47.89
75006;BME280;63553;51.814;4.600;2023-02-28T14:31:35;103168.97;;;13.75;47.25
75006;BME280;63553;51.814;4.600;2023-02-28T14:36:42;103175.72;;;13.69;49.31
75006;BME280;63553;51.814;4.600;2023-02-28T14:39:16;103176.00;;;13.68;49.08